Time;durP1;ratioP1;P1;durP2;ratioP2;P2;SDS_P1;SDS_P2;PMS_P1;PMS_P2;Temp;Humidity;BMP_temperature;BMP_pressure;BME280_temperature;BME280_humidity;BME280_pressure;Samples;Min_cycle;Max_cycle;Signal;HPM_P1;HPM_P2
2023/08/08 00:01:44;;;;;;;2.80;2.60;;;;;;;17.75;100.00;99091.87;104349;1257;60549;-63
2023/08/08 00:04:11;;;;;;;3.70;2.50;;;;;;;17.76;100.00;99090.15;104359;1254;74084;-63
2023/08/08 00:06:39;;;;;;;5.30;2.40;;;;;;;17.79;100.00;99087.48;104732;1267;69227;-64
2023/08/08 00:09:07;;;;;;;3.70;3.00;;;;;;;17.74;100.00;99092.47;104547;1266;71815;-64
2023/08/08 00:11:35;;;;;;;2.70;2.40;;;;;;;17.68;100.00;99095.58;104504;1257;62447;-63
2023/08/08 00:14:02;;;;;;;2.80;2.40;;;;;;;17.66;100.00;99100.73;104499;1256;60582;-64
2023/08/08 00:16:30;;;;;;;7.30;2.80;;;;;;;17.64;100.00;99105.29;104390;1254;74137;-64
2023/08/08 00:19:00;;;;;;;5.20;2.50;;;;;;;17.67;100.00;99109.48;104530;1257;69725;-64
2023/08/08 00:21:28;;;;;;;2.60;2.40;;;;;;;17.73;100.00;99109.07;104349;1266;72343;-64
2023/08/08 00:23:55;;;;;;;4.50;2.70;;;;;;;17.71;100.00;99110.39;104219;1254;61776;-64
2023/08/08 00:26:23;;;;;;;7.00;2.30;;;;;;;17.69;100.00;99109.13;104544;1257;60548;-63
2023/08/08 00:28:51;;;;;;;2.80;2.60;;;;;;;17.66;100.00;99110.28;105054;1251;73544;-64
2023/08/08 00:31:19;;;;;;;3.40;2.40;;;;;;;17.61;100.00;99107.83;104377;1259;69903;-64
2023/08/08 00:33:47;;;;;;;3.80;2.40;;;;;;;17.56;100.00;99105.77;104272;1270;72847;-64
2023/08/08 00:36:15;;;;;;;;;;;;;;;17.41;100.00;99108.19;104534;1252;61480;-64
2023/08/08 00:38:42;;;;;;;;;;;;;;;17.36;100.00;99109.71;104554;1254;60457;-64
2023/08/08 00:41:10;;;;;;;3.10;1.90;;;;;;;17.29;100.00;99111.96;104330;1256;74029;-63
2023/08/08 00:43:38;;;;;;;4.30;2.50;;;;;;;17.25;100.00;99112.44;104400;1255;70125;-64
2023/08/08 00:46:05;;;;;;;3.20;2.40;;;;;;;17.23;100.00;99111.60;104476;1263;72375;-64
2023/08/08 00:48:33;;;;;;;;;;;;;;;17.22;100.00;99111.31;105024;1254;61936;-64
2023/08/08 00:51:01;;;;;;;4.20;3.20;;;;;;;17.20;100.00;99108.62;106089;1251;60521;-64
2023/08/08 00:53:31;;;;;;;12.00;2.40;;;;;;;17.18;100.00;99112.69;108463;1254;73832;-65
2023/08/08 00:55:59;;;;;;;2.80;2.30;;;;;;;17.19;100.00;99110.81;104984;1260;69114;-64
2023/08/08 00:58:26;;;;;;;6.80;2.10;;;;;;;17.22;100.00;99114.65;108461;1251;71144;-65
2023/08/08 01:00:57;;;;;;;2.70;2.30;;;;;;;17.26;100.00;99110.41;108589;1251;61365;-65
2023/08/08 01:03:26;;;;;;;4.00;2.20;;;;;;;17.28;100.00;99106.39;108113;1255;59724;-64
2023/08/08 01:06:29;;;;;;;2.90;2.60;;;;;;;17.24;100.00;99110.95;104401;1254;74499;-64
2023/08/08 01:09:13;;;;;;;2.30;2.10;;;;;;;17.22;100.00;99111.47;104812;1257;69002;-64
2023/08/08 01:11:41;;;;;;;2.90;2.60;;;;;;;17.16;100.00;99108.89;104477;1264;72121;-64
2023/08/08 01:14:09;;;;;;;3.20;2.50;;;;;;;17.12;100.00;99113.34;104432;1258;60881;-64
2023/08/08 01:16:37;;;;;;;2.70;2.50;;;;;;;17.12;100.00;99114.35;104398;1254;59663;-64
2023/08/08 01:19:04;;;;;;;2.70;2.50;;;;;;;17.16;100.00;99115.99;104554;1257;73497;-65
2023/08/08 01:21:32;;;;;;;5.20;2.90;;;;;;;17.15;100.00;99117.85;104430;1267;69605;-63
2023/08/08 01:24:21;;;;;;;3.40;2.50;;;;;;;17.15;100.00;99120.02;104838;1255;72834;-64
2023/08/08 01:26:49;;;;;;;2.80;2.50;;;;;;;17.14;100.00;99115.83;104455;1257;61419;-64
2023/08/08 01:29:16;;;;;;;;;;;;;;;17.12;100.00;99118.27;104415;1260;60571;-63
2023/08/08 01:31:44;;;;;;;2.60;2.40;;;;;;;17.09;100.00;99116.73;104673;1256;74007;-63
2023/08/08 01:34:12;;;;;;;3.90;2.60;;;;;;;17.10;100.00;99116.49;104352;1275;69136;-63
2023/08/08 01:36:49;;;;;;;7.10;2.90;;;;;;;17.02;100.00;99119.98;104577;1255;72474;-64
2023/08/08 01:39:19;;;;;;;3.10;2.40;;;;;;;16.98;100.00;99124.67;107819;1251;61459;-65
2023/08/08 01:41:47;;;;;;;3.20;2.60;;;;;;;17.02;100.00;99126.83;107303;1254;60223;-65
2023/08/08 01:44:15;;;;;;;3.10;2.60;;;;;;;17.06;100.00;99124.59;104725;1255;72884;-64
2023/08/08 01:46:43;;;;;;;3.00;2.50;;;;;;;17.06;100.00;99123.66;104435;1259;69165;-64
2023/08/08 01:49:10;;;;;;;5.30;2.90;;;;;;;17.02;100.00;99129.31;104417;1257;72392;-64
2023/08/08 01:51:38;;;;;;;4.00;2.60;;;;;;;17.04;100.00;99130.95;104465;1264;61597;-64
2023/08/08 01:54:08;;;;;;;3.40;2.60;;;;;;;17.01;100.00;99130.78;104401;1268;60067;-64
2023/08/08 01:56:36;;;;;;;;;;;;;;;16.99;100.00;99135.57;104274;1274;73586;-64
2023/08/08 01:59:03;;;;;;;;;;;;;;;16.93;100.00;99137.27;104413;1257;68544;-64
2023/08/08 02:01:31;;;;;;;6.30;2.30;;;;;;;16.91;100.00;99139.03;104422;1271;72410;-64
2023/08/08 02:03:59;;;;;;;6.10;2.80;;;;;;;16.91;100.00;99144.32;104384;1255;62015;-62
2023/08/08 02:06:27;;;;;;;;;;;;;;;16.84;100.00;99148.40;104488;1258;61172;-63
2023/08/08 02:08:54;;;;;;;;;;;;;;;16.81;100.00;99150.23;104578;1257;72626;-62
2023/08/08 02:11:22;;;;;;;3.40;2.60;;;;;;;16.76;100.00;99156.05;104480;1261;69047;-63
2023/08/08 02:13:50;;;;;;;3.80;2.40;;;;;;;16.77;100.00;99157.80;104362;1257;71677;-62
2023/08/08 02:16:17;;;;;;;7.50;3.00;;;;;;;16.79;100.00;99163.14;104298;1252;61393;-62
2023/08/08 02:18:45;;;;;;;3.30;2.50;;;;;;;16.78;100.00;99169.33;104410;1257;59755;-62
2023/08/08 02:21:13;;;;;;;4.30;2.40;;;;;;;16.80;100.00;99170.32;104330;1257;74485;-63
2023/08/08 02:23:40;;;;;;;2.30;2.20;;;;;;;16.79;100.00;99172.89;104347;1257;69426;-63
2023/08/08 02:26:08;;;;;;;3.70;2.40;;;;;;;16.72;100.00;99177.98;104354;1272;72383;-63
2023/08/08 02:28:36;;;;;;;3.00;2.50;;;;;;;16.67;100.00;99176.73;104452;1254;61799;-64
2023/08/08 02:31:04;;;;;;;3.10;2.80;;;;;;;16.63;100.00;99179.50;104340;1254;59964;-63
2023/08/08 02:33:31;;;;;;;4.10;2.60;;;;;;;16.67;100.00;99176.04;104540;1256;72948;-65
2023/08/08 02:35:59;;;;;;;4.10;2.60;;;;;;;16.73;100.00;99177.14;104614;1257;69436;-65
2023/08/08 02:38:27;;;;;;;13.30;2.70;;;;;;;16.78;100.00;99179.64;104313;1254;72983;-65
2023/08/08 02:40:54;;;;;;;4.10;2.60;;;;;;;16.84;100.00;99177.60;104459;1255;61471;-64
2023/08/08 02:43:22;;;;;;;2.90;2.30;;;;;;;16.85;100.00;99179.11;104538;1256;60548;-67
2023/08/08 02:45:50;;;;;;;2.80;2.50;;;;;;;16.85;100.00;99177.52;104507;1254;73663;-65
2023/08/08 02:48:19;;;;;;;2.80;2.60;;;;;;;16.91;100.00;99173.55;104339;1270;69600;-66
2023/08/08 02:50:46;;;;;;;2.60;2.40;;;;;;;16.93;100.00;99172.48;106928;1251;72946;-64
2023/08/08 02:53:14;;;;;;;3.10;2.60;;;;;;;16.96;100.00;99176.54;108409;1253;62364;-64
2023/08/08 02:55:44;;;;;;;2.70;2.50;;;;;;;16.97;100.00;99174.66;104954;1255;60269;-64
2023/08/08 02:58:12;;;;;;;2.40;2.20;;;;;;;16.99;100.00;99174.17;104629;1270;73726;-64
2023/08/08 03:00:40;;;;;;;;;;;;;;;17.01;100.00;99173.27;104643;1254;69663;-65
2023/08/08 03:03:10;;;;;;;2.90;2.60;;;;;;;16.96;100.00;99176.34;104237;1253;72891;-60
2023/08/08 03:05:37;;;;;;;3.60;2.80;;;;;;;16.87;100.00;99176.83;104397;1257;61444;-61
2023/08/08 03:08:05;;;;;;;3.90;2.60;;;;;;;16.84;100.00;99186.42;104415;1256;59686;-60
2023/08/08 03:10:33;;;;;;;2.60;2.30;;;;;;;16.84;100.00;99182.55;104553;1263;73617;-60
2023/08/08 03:13:01;;;;;;;2.70;2.50;;;;;;;16.81;100.00;99179.26;104540;1257;69435;-62
2023/08/08 03:15:29;;;;;;;3.50;2.70;;;;;;;16.81;100.00;99183.48;104285;1267;72988;-59
2023/08/08 03:17:56;;;;;;;2.80;2.60;;;;;;;16.86;100.00;99184.70;104417;1255;61379;-60
2023/08/08 03:20:25;;;;;;;6.00;3.20;;;;;;;16.87;100.00;99195.96;104534;1255;60673;-60
2023/08/08 03:22:52;;;;;;;;;;;;;;;16.84;100.00;99200.64;104407;1254;73771;-58
2023/08/08 03:25:20;;;;;;;4.80;2.80;;;;;;;16.80;100.00;99206.54;104405;1270;69669;-61
2023/08/08 03:27:48;;;;;;;3.60;2.40;;;;;;;16.82;100.00;99207.64;104468;1251;72347;-61
2023/08/08 03:30:16;;;;;;;;;;;;;;;16.77;100.00;99215.95;104456;1257;61391;-62
2023/08/08 03:32:43;;;;;;;5.50;2.50;;;;;;;16.81;100.00;99217.86;104654;1254;60664;-62
2023/08/08 03:35:11;;;;;;;3.90;2.60;;;;;;;16.81;100.00;99217.11;104558;1258;73702;-61
2023/08/08 03:37:41;;;;;;;2.80;2.60;;;;;;;16.89;100.00;99217.95;104355;1263;69655;-61
2023/08/08 03:40:10;;;;;;;5.40;2.50;;;;;;;16.90;100.00;99227.06;105675;1254;71432;-59
2023/08/08 03:42:37;;;;;;;4.50;2.40;;;;;;;16.94;100.00;99228.74;108547;1250;61366;-62
2023/08/08 03:45:06;;;;;;;2.90;2.60;;;;;;;17.02;100.00;99230.98;108101;1251;60191;-60
2023/08/08 03:47:33;;;;;;;4.80;2.60;;;;;;;17.07;100.00;99237.15;104736;1255;73616;-60
2023/08/08 03:50:01;;;;;;;2.70;2.50;;;;;;;17.17;100.00;99237.98;104411;1266;69295;-61
2023/08/08 03:52:30;;;;;;;3.60;3.00;;;;;;;17.23;100.00;99240.70;104415;1267;72024;-62
2023/08/08 03:54:57;;;;;;;5.30;2.50;;;;;;;17.25;100.00;99244.02;104510;1257;61482;-62
2023/08/08 03:57:25;;;;;;;2.70;2.50;;;;;;;17.24;100.00;99249.98;104537;1256;60495;-61
2023/08/08 03:59:53;;;;;;;4.70;3.00;;;;;;;17.36;100.00;99253.31;104358;1254;73570;-61
2023/08/08 04:02:20;;;;;;;3.40;2.80;;;;;;;17.41;100.00;99260.76;104352;1269;68125;-61
2023/08/08 04:04:48;;;;;;;5.60;2.90;;;;;;;17.45;100.00;99265.80;104420;1257;72503;-62
2023/08/08 04:07:16;;;;;;;;;;;;;;;17.57;100.00;99267.83;104511;1258;61749;-62
2023/08/08 04:09:43;;;;;;;3.50;2.60;;;;;;;17.63;100.00;99268.95;104447;1254;60441;-62
2023/08/08 04:12:11;;;;;;;2.50;2.30;;;;;;;17.64;100.00;99275.61;104610;1254;74524;-62
2023/08/08 04:14:39;;;;;;;;;;;;;;;17.72;100.00;99278.87;104316;1261;69143;-62
2023/08/08 04:17:06;;;;;;;2.70;1.80;;;;;;;17.78;100.00;99278.92;104509;1269;72861;-62
2023/08/08 04:19:34;;;;;;;1.80;1.70;;;;;;;17.81;100.00;99278.54;104572;1252;61916;-61
2023/08/08 04:22:02;;;;;;;1.80;1.70;;;;;;;17.90;100.00;99279.60;104328;1255;60667;-62
2023/08/08 04:24:30;;;;;;;2.30;1.80;;;;;;;18.01;100.00;99284.13;104283;1257;74441;-62
2023/08/08 04:26:57;;;;;;;3.50;1.60;;;;;;;18.05;100.00;99285.70;104344;1257;69554;-60
2023/08/08 04:29:25;;;;;;;;;;;;;;;18.13;100.00;99291.44;104349;1251;72930;-61
2023/08/08 04:31:53;;;;;;;2.20;1.70;;;;;;;18.22;100.00;99291.98;105198;1251;61487;-61
2023/08/08 04:34:20;;;;;;;3.70;2.00;;;;;;;18.29;100.00;99295.71;104353;1255;60511;-62
2023/08/08 04:36:48;;;;;;;2.20;1.80;;;;;;;18.38;100.00;99297.98;104288;1257;73537;-62
2023/08/08 04:39:16;;;;;;;;;;;;;;;18.42;100.00;99297.26;104604;1257;69612;-62
2023/08/08 04:41:43;;;;;;;3.20;1.50;;;;;;;18.49;100.00;99298.58;104586;1267;73301;-62
2023/08/08 04:44:11;;;;;;;2.60;1.90;;;;;;;18.55;100.00;99302.87;104765;1251;61834;-61
2023/08/08 04:46:38;;;;;;;2.40;2.10;;;;;;;18.58;100.00;99303.15;104363;1251;59854;-61
2023/08/08 04:49:06;;;;;;;1.70;1.60;;;;;;;18.58;100.00;99303.15;104232;1273;73627;-61
2023/08/08 04:51:34;;;;;;;2.60;2.00;;;;;;;18.68;100.00;99306.70;104349;1257;70014;-63
2023/08/08 04:54:02;;;;;;;2.10;1.50;;;;;;;18.74;100.00;99301.79;108464;1251;72561;-63
2023/08/08 04:56:29;;;;;;;1.90;1.60;;;;;;;18.81;100.00;99306.23;105943;1251;61106;-62
2023/08/08 04:58:57;;;;;;;3.90;1.60;;;;;;;18.86;100.00;99304.02;104646;1254;60488;-62
2023/08/08 05:01:24;;;;;;;2.00;1.80;;;;;;;18.98;100.00;99307.31;104471;1257;74502;-62
2023/08/08 05:03:52;;;;;;;2.90;1.80;;;;;;;19.07;100.00;99306.20;104527;1257;68154;-63
2023/08/08 05:06:23;;;;;;;1.80;1.70;;;;;;;19.11;100.00;99304.88;104695;1257;73432;-63
2023/08/08 05:08:51;;;;;;;2.20;1.80;;;;;;;19.17;100.00;99304.53;104314;1254;60441;-62
2023/08/08 05:11:19;;;;;;;2.00;1.70;;;;;;;19.24;100.00;99308.52;104326;1253;60122;-62
2023/08/08 05:13:47;;;;;;;3.70;1.50;;;;;;;19.33;100.00;99312.09;104327;1254;73954;-62
2023/08/08 05:16:15;;;;;;;4.70;2.00;;;;;;;19.40;100.00;99318.89;104415;1261;70170;-63
2023/08/08 05:18:45;;;;;;;1.70;1.60;;;;;;;19.53;100.00;99325.13;104511;1267;72415;-62
2023/08/08 05:21:12;;;;;;;1.80;1.40;;;;;;;19.60;100.00;99326.15;104896;1250;62323;-62
2023/08/08 05:23:40;;;;;;;1.70;1.60;;;;;;;19.61;100.00;99329.37;104342;1256;60624;-62
2023/08/08 05:26:08;;;;;;;3.80;1.60;;;;;;;19.73;100.00;99326.95;104361;1257;74154;-62
2023/08/08 05:28:36;;;;;;;1.60;1.50;;;;;;;19.93;100.00;99326.77;104421;1267;69221;-64
2023/08/08 05:31:03;;;;;;;;;;;;;;;19.96;100.00;99327.19;104608;1264;73176;-61
2023/08/08 05:33:31;;;;;;;5.50;1.60;;;;;;;20.04;100.00;99330.55;104561;1254;61531;-63
2023/08/08 05:36:00;;;;;;;3.90;1.70;;;;;;;20.14;100.00;99331.69;104391;1269;60646;-62
2023/08/08 05:38:27;;;;;;;1.80;1.70;;;;;;;20.28;100.00;99324.17;104459;1251;73741;-62
2023/08/08 05:40:55;;;;;;;3.60;1.50;;;;;;;20.44;100.00;99322.23;104564;1257;70067;-64
2023/08/08 05:43:23;;;;;;;;;;;;;;;20.50;100.00;99324.16;104529;1253;73334;-62
2023/08/08 05:45:50;;;;;;;3.60;1.50;;;;;;;20.55;100.00;99324.68;107657;1251;61401;-63
2023/08/08 05:48:18;;;;;;;1.60;1.50;;;;;;;20.61;100.00;99317.36;107199;1254;59656;-63
2023/08/08 05:50:46;;;;;;;3.00;1.50;;;;;;;20.73;100.00;99318.80;104942;1254;73582;-63
2023/08/08 05:53:13;;;;;;;3.20;1.60;;;;;;;20.86;100.00;99316.73;104605;1260;69564;-62
2023/08/08 05:55:42;;;;;;;2.00;1.50;;;;;;;20.89;100.00;99321.61;104476;1255;72332;-63
2023/08/08 05:58:10;;;;;;;1.20;1.20;;;;;;;21.02;100.00;99321.16;104558;1253;62426;-62
2023/08/08 06:00:38;;;;;;;1.30;1.20;;;;;;;21.04;100.00;99321.75;104514;1257;59704;-63
2023/08/08 06:03:05;;;;;;;1.30;1.10;;;;;;;20.94;100.00;99322.96;104735;1266;73660;-63
2023/08/08 06:05:34;;;;;;;1.40;1.30;;;;;;;20.87;100.00;99323.06;104452;1251;68135;-62
2023/08/08 06:08:04;;;;;;;1.40;1.30;;;;;;;20.78;100.00;99321.70;104931;1251;72549;-63
2023/08/08 06:10:31;;;;;;;1.40;1.20;;;;;;;20.68;100.00;99327.58;105042;1253;61773;-63
2023/08/08 06:12:59;;;;;;;1.40;1.30;;;;;;;20.69;100.00;99334.69;105153;1253;60555;-63
2023/08/08 06:15:26;;;;;;;1.20;1.10;;;;;;;20.68;100.00;99332.99;104345;1257;74041;-62
2023/08/08 06:17:54;;;;;;;1.60;1.40;;;;;;;20.81;100.00;99330.01;104343;1255;69144;-62
2023/08/08 06:20:22;;;;;;;1.20;1.20;;;;;;;20.84;100.00;99330.23;104303;1258;73334;-61
2023/08/08 06:22:51;;;;;;;10.60;1.70;;;;;;;20.89;100.00;99329.28;104347;1251;61478;-61
2023/08/08 06:25:19;;;;;;;1.10;1.00;;;;;;;20.94;100.00;99327.61;104417;1253;60521;-62
2023/08/08 06:27:47;;;;;;;1.80;1.60;;;;;;;20.98;100.00;99326.14;104523;1256;73751;-61
2023/08/08 06:30:16;;;;;;;1.50;1.10;;;;;;;21.03;100.00;99330.98;104338;1257;69806;-63
2023/08/08 06:32:44;;;;;;;;;;;;;;;21.15;100.00;99323.86;104293;1266;72388;-62
2023/08/08 06:35:12;;;;;;;1.30;1.00;;;;;;;21.22;100.00;99328.76;104523;1256;61395;-62
2023/08/08 06:37:40;;;;;;;1.90;1.00;;;;;;;21.25;100.00;99325.63;104545;1267;60871;-62
2023/08/08 06:40:09;;;;;;;2.40;1.30;;;;;;;21.24;100.00;99327.98;104319;1272;74512;-62
2023/08/08 06:42:36;;;;;;;3.50;1.30;;;;;;;21.37;100.00;99327.05;104336;1263;69773;-62
2023/08/08 06:45:07;;;;;;;1.10;1.10;;;;;;;21.41;100.00;99334.29;104503;1264;72924;-63
2023/08/08 06:47:35;;;;;;;1.60;1.50;;;;;;;21.44;100.00;99333.30;104719;1251;62335;-63
2023/08/08 06:50:03;;;;;;;1.70;1.20;;;;;;;21.62;100.00;99342.02;104537;1258;60563;-62
2023/08/08 06:52:31;;;;;;;1.30;1.20;;;;;;;21.75;100.00;99352.09;104543;1251;73673;-62
2023/08/08 06:54:58;;;;;;;1.60;1.50;;;;;;;21.81;100.00;99345.05;105428;1256;69079;-62
2023/08/08 06:57:26;;;;;;;2.20;1.50;;;;;;;21.85;100.00;99340.42;104495;1264;72510;-63
2023/08/08 06:59:54;;;;;;;1.40;1.30;;;;;;;21.82;100.00;99347.30;104696;1254;61750;-60
2023/08/08 07:02:21;;;;;;;1.50;1.00;;;;;;;21.88;100.00;99350.98;104773;1254;59714;-61
2023/08/08 07:04:49;;;;;;;;;;;;;;;21.93;100.00;99351.98;104761;1253;73664;-60
2023/08/08 07:07:17;;;;;;;1.30;1.00;;;;;;;21.97;100.00;99353.94;104757;1251;68097;-62
2023/08/08 07:09:44;;;;;;;1.20;1.00;;;;;;;22.02;100.00;99354.00;104435;1264;73330;-61
2023/08/08 07:12:12;;;;;;;2.00;1.20;;;;;;;22.08;100.00;99351.36;104536;1253;61385;-60
2023/08/08 07:17:07;;;;;;;1.50;0.90;;;;;;;21.85;100.00;99352.34;101908;1293;601649;-59
2023/08/08 07:19:36;;;;;;;2.40;1.00;;;;;;;22.11;100.00;99352.39;104011;1264;61390;-60
2023/08/08 07:22:04;;;;;;;2.10;1.20;;;;;;;22.12;100.00;99353.73;104107;1263;59704;-59
2023/08/08 07:24:31;;;;;;;;;;;;;;;22.29;100.00;99354.23;103966;1267;71807;-58
2023/08/08 07:26:59;;;;;;;1.50;0.80;;;;;;;22.39;100.00;99359.52;103915;1266;69544;-60
2023/08/08 07:29:27;;;;;;;1.20;1.10;;;;;;;22.46;100.00;99357.48;104790;1263;72909;-59
2023/08/08 07:31:54;;;;;;;1.20;0.90;;;;;;;22.53;100.00;99349.23;103795;1263;215941;-60
2023/08/08 07:34:22;;;;;;;;;;;;;;;22.61;100.00;99345.88;104366;1263;59740;-60
2023/08/08 07:36:50;;;;;;;1.50;1.20;;;;;;;22.72;100.00;99340.95;104324;1262;72318;-60
2023/08/08 07:39:17;;;;;;;0.80;0.80;;;;;;;22.81;100.00;99344.98;103933;1262;68500;-60
2023/08/08 07:41:45;;;;;;;;;;;;;;;22.85;100.00;99341.99;104328;1258;72486;-60
2023/08/08 07:44:13;;;;;;;;;;;;;;;22.84;100.00;99334.98;104395;1263;61517;-60
2023/08/08 07:46:40;;;;;;;1.20;1.10;;;;;;;23.01;100.00;99327.24;104564;1263;59804;-61
2023/08/08 07:49:09;;;;;;;3.40;0.80;;;;;;;23.15;100.00;99328.94;106603;1257;72727;-59
2023/08/08 07:51:36;;;;;;;3.00;0.70;;;;;;;23.13;100.00;99335.59;104473;1264;69540;-59
2023/08/08 07:54:08;;;;;;;0.70;0.40;;;;;;;23.23;100.00;99340.22;104619;1260;72524;-60
2023/08/08 07:56:36;;;;;;;4.40;0.80;;;;;;;23.45;100.00;99344.84;104187;1260;61415;-60
2023/08/08 07:59:04;;;;;;;1.10;0.60;;;;;;;23.54;100.00;99349.67;104154;1254;60644;-60
2023/08/08 08:01:31;;;;;;;;;;;;;;;23.47;100.00;99352.16;104258;1257;72787;-60
2023/08/08 08:03:59;;;;;;;;;;;;;;;23.55;100.00;99349.93;104605;1257;69581;-60
2023/08/08 08:06:27;;;;;;;1.10;0.90;;;;;;;23.55;100.00;99353.13;104505;1257;72927;-60
2023/08/08 08:08:54;;;;;;;0.50;0.50;;;;;;;23.49;100.00;99351.20;104598;1256;59919;-60
2023/08/08 08:11:22;;;;;;;0.70;0.60;;;;;;;23.47;100.00;99350.02;104101;1260;59830;-60
2023/08/08 08:13:50;;;;;;;3.00;1.10;;;;;;;23.55;100.00;99342.05;104157;1260;72821;-60
2023/08/08 08:16:18;;;;;;;1.30;1.00;;;;;;;23.63;100.00;99339.38;104448;1260;69077;-60
2023/08/08 08:18:47;;;;;;;2.20;0.80;;;;;;;23.65;100.00;99335.99;104264;1258;71722;-61
2023/08/08 08:21:17;;;;;;;1.00;0.80;;;;;;;23.81;100.00;99333.16;104181;1263;59902;-64
2023/08/08 08:23:45;;;;;;;1.50;0.90;;;;;;;23.89;100.00;99336.05;104297;1257;60206;-61
2023/08/08 08:26:14;;;;;;;0.90;0.80;;;;;;;23.93;100.00;99340.20;104288;1263;72998;-61
2023/08/08 08:28:41;;;;;;;0.70;0.70;;;;;;;23.96;100.00;99335.73;104589;1260;70462;-60
2023/08/08 08:31:09;;;;;;;0.90;0.80;;;;;;;24.01;100.00;99328.76;104159;1258;72398;-60
2023/08/08 08:33:39;;;;;;;;;;;;;;;24.08;100.00;99329.66;104298;1258;59701;-60
2023/08/08 08:36:07;;;;;;;1.80;0.80;;;;;;;24.14;99.10;99329.16;104360;1262;59627;-65
2023/08/08 08:38:35;;;;;;;1.70;0.80;;;;;;;24.29;97.46;99328.55;104264;1263;72743;-62
2023/08/08 08:41:04;;;;;;;3.80;0.90;;;;;;;24.41;99.48;99331.90;104076;1266;70217;-60
2023/08/08 08:43:31;;;;;;;0.90;0.70;;;;;;;24.53;95.28;99330.18;104368;1256;73116;-61
2023/08/08 08:46:00;;;;;;;2.00;0.40;;;;;;;24.59;90.32;99327.89;104371;1264;59736;-61
2023/08/08 08:48:28;;;;;;;0.80;0.60;;;;;;;24.57;86.93;99331.64;104588;1256;59853;-62
2023/08/08 08:50:57;;;;;;;0.90;0.60;;;;;;;24.59;87.36;99324.89;105353;1257;71904;-66
2023/08/08 08:53:24;;;;;;;2.50;0.60;;;;;;;24.61;86.77;99324.23;104826;1259;69391;-66
2023/08/08 08:55:53;;;;;;;1.40;0.60;;;;;;;24.61;86.61;99317.09;108234;1253;73828;-65
2023/08/08 08:58:21;;;;;;;0.60;0.60;;;;;;;24.52;87.87;99324.48;107242;1253;59837;-64
2023/08/08 09:00:48;;;;;;;2.20;0.70;;;;;;;24.46;87.25;99322.57;104963;1253;60107;-65
2023/08/08 09:03:16;;;;;;;0.80;0.40;;;;;;;24.48;90.29;99319.15;104428;1261;72811;-62
2023/08/08 09:05:44;;;;;;;;;;;;;;;24.44;81.32;99320.89;104732;1256;70061;-63
2023/08/08 09:08:12;;;;;;;3.30;0.60;;;;;;;24.38;81.08;99322.55;104465;1254;71822;-63
2023/08/08 09:10:40;;;;;;;;;;;;;;;24.39;80.46;99319.36;104806;1258;59829;-62
2023/08/08 09:13:08;;;;;;;0.40;0.40;;;;;;;24.35;77.36;99322.53;104518;1254;59813;-61
2023/08/08 09:15:35;;;;;;;0.70;0.70;;;;;;;24.43;80.45;99326.33;104579;1259;72533;-62
2023/08/08 09:18:03;;;;;;;1.10;0.50;;;;;;;24.44;82.52;99326.27;104411;1257;69743;-61
2023/08/08 09:20:31;;;;;;;;;;;;;;;24.55;82.02;99320.25;104269;1270;72488;-61
2023/08/08 09:22:58;;;;;;;;;;;;;;;24.65;83.42;99312.34;104664;1256;60152;-61
2023/08/08 09:25:26;;;;;;;1.10;0.70;;;;;;;24.77;80.08;99314.99;104397;1254;59806;-62
2023/08/08 09:27:55;;;;;;;0.80;0.50;;;;;;;24.80;78.84;99309.69;104338;1258;72709;-62
2023/08/08 09:30:22;;;;;;;1.50;0.40;;;;;;;24.77;79.54;99314.02;104357;1261;69516;-62
2023/08/08 09:32:50;;;;;;;1.10;0.50;;;;;;;24.82;79.86;99312.27;104512;1263;72552;-62
2023/08/08 09:35:18;;;;;;;;;;;;;;;24.86;80.19;99322.30;104490;1254;60284;-62
2023/08/08 09:37:46;;;;;;;1.90;0.50;;;;;;;24.87;79.27;99326.32;104465;1257;59670;-63
2023/08/08 09:40:15;;;;;;;;;;;;;;;24.77;78.24;99330.98;104365;1258;72986;-62
2023/08/08 09:42:43;;;;;;;1.10;0.60;;;;;;;24.76;78.47;99327.33;104322;1257;69006;-63
2023/08/08 09:45:10;;;;;;;0.50;0.50;;;;;;;24.79;79.77;99319.98;104595;1257;72285;-62
2023/08/08 09:47:38;;;;;;;1.20;0.60;;;;;;;24.80;82.10;99324.35;104261;1254;59735;-63
2023/08/08 09:50:07;;;;;;;0.90;0.60;;;;;;;24.74;79.02;99321.79;104501;1260;60364;-63
2023/08/08 09:52:35;;;;;;;3.30;1.10;;;;;;;24.79;78.84;99325.41;104692;1261;72804;-62
2023/08/08 09:55:03;;;;;;;0.50;0.50;;;;;;;24.79;82.82;99326.13;104506;1254;68449;-62
2023/08/08 09:57:32;;;;;;;2.50;0.60;;;;;;;24.78;83.47;99324.20;104433;1269;72467;-62
2023/08/08 10:00:00;;;;;;;2.20;0.70;;;;;;;24.69;82.21;99325.21;104594;1260;60322;-63
2023/08/08 10:02:28;;;;;;;1.10;0.80;;;;;;;24.60;83.90;99332.40;104436;1251;60064;-62
2023/08/08 10:04:58;;;;;;;;;;;;;;;24.51;82.02;99343.27;104204;1275;73170;-63
2023/08/08 10:07:26;;;;;;;1.10;0.60;;;;;;;24.52;85.01;99339.52;104344;1260;68185;-63
2023/08/08 10:09:53;;;;;;;1.30;0.70;;;;;;;24.40;84.12;99338.47;104582;1258;73391;-63
2023/08/08 10:12:21;;;;;;;1.00;0.60;;;;;;;24.35;83.37;99340.84;104646;1254;59768;-60
2023/08/08 10:14:48;;;;;;;0.70;0.60;;;;;;;24.24;80.66;99346.36;104266;1259;59693;-61
2023/08/08 10:17:19;;;;;;;0.80;0.50;;;;;;;24.21;83.80;99347.29;104054;1257;72788;-64
2023/08/08 10:19:56;;;;;;;1.80;0.60;;;;;;;24.19;77.65;99350.15;104316;1267;69969;-63
2023/08/08 10:22:24;;;;;;;0.90;0.40;;;;;;;24.21;78.01;99349.06;104387;1260;73178;-65
2023/08/08 10:24:56;;;;;;;0.70;0.50;;;;;;;24.35;80.23;99340.46;104370;1260;59769;-61
2023/08/08 10:27:32;;;;;;;1.70;0.40;;;;;;;24.41;81.89;99342.50;104288;1259;60702;-61
2023/08/08 10:30:04;;;;;;;1.10;0.60;;;;;;;24.63;82.47;99339.52;104310;1260;72830;-61
2023/08/08 10:32:43;;;;;;;2.00;0.50;;;;;;;24.62;78.98;99339.58;104447;1254;69869;-61
2023/08/08 10:35:11;;;;;;;0.80;0.60;;;;;;;24.62;78.21;99337.41;104644;1266;72538;-63
2023/08/08 10:37:39;;;;;;;0.50;0.50;;;;;;;24.48;79.60;99339.02;104403;1260;60867;-63
2023/08/08 10:40:08;;;;;;;0.50;0.50;;;;;;;24.52;83.89;99340.63;104507;1256;59825;-63
2023/08/08 10:42:43;;;;;;;0.50;0.50;;;;;;;24.62;81.67;99333.64;104553;1259;72930;-63
2023/08/08 10:45:13;;;;;;;0.60;0.50;;;;;;;24.61;76.53;99331.11;104544;1251;69334;-63
2023/08/08 10:47:41;;;;;;;0.40;0.40;;;;;;;24.55;75.75;99339.02;104389;1257;72914;-63
2023/08/08 10:50:13;;;;;;;0.90;0.50;;;;;;;24.57;78.50;99340.60;104454;1259;59724;-69
2023/08/08 10:52:55;;;;;;;0.50;0.50;;;;;;;24.60;77.17;99336.56;104273;1259;61054;-64
2023/08/08 10:55:30;;;;;;;0.40;0.40;;;;;;;24.63;77.13;99342.21;104356;1253;72437;-64
2023/08/08 10:57:59;;;;;;;0.50;0.50;;;;;;;24.59;73.28;99344.59;108328;1253;69075;-65
2023/08/08 11:00:29;;;;;;;1.60;0.40;;;;;;;24.43;72.18;99340.52;106108;1256;72746;-63
2023/08/08 11:02:57;;;;;;;0.70;0.50;;;;;;;24.32;72.80;99338.45;104849;1254;61129;-65
2023/08/08 11:05:28;;;;;;;0.40;0.40;;;;;;;24.25;74.55;99336.59;104520;1254;59802;-63
2023/08/08 11:07:56;;;;;;;0.30;0.30;;;;;;;24.25;74.84;99338.64;104905;1254;72810;-64
2023/08/08 11:10:23;;;;;;;0.70;0.60;;;;;;;24.25;74.88;99341.44;104979;1253;70618;-64
2023/08/08 11:12:55;;;;;;;;;;;;;;;24.21;73.82;99340.28;104322;1260;71069;-63
2023/08/08 11:15:23;;;;;;;1.10;0.50;;;;;;;24.20;76.18;99344.90;104764;1251;59756;-63
2023/08/08 11:17:52;;;;;;;0.50;0.40;;;;;;;24.29;76.29;99342.66;104355;1252;59830;-63
2023/08/08 11:20:21;;;;;;;3.80;0.60;;;;;;;24.31;75.76;99343.03;104458;1269;72875;-64
2023/08/08 11:22:55;;;;;;;2.70;0.50;;;;;;;24.37;79.67;99341.52;104401;1257;69629;-64
2023/08/08 11:25:25;;;;;;;0.50;0.50;;;;;;;24.48;83.19;99343.02;104631;1256;74431;-63
2023/08/08 11:27:53;;;;;;;2.00;0.50;;;;;;;24.50;78.52;99341.91;104414;1254;60535;-64
2023/08/08 11:30:22;;;;;;;0.50;0.40;;;;;;;24.46;76.25;99343.00;104497;1257;60666;-64
2023/08/08 11:32:50;;;;;;;4.80;1.10;;;;;;;24.40;74.83;99343.30;104579;1254;73602;-63
2023/08/08 11:35:22;;;;;;;0.50;0.40;;;;;;;24.32;69.59;99340.41;104487;1251;70393;-63